Epic Capri — 9HA2845 — position and weather

sailwx.info

Track history (hours):
 
Tides and Currents Weather Stations Pressure Air Temp Water Temp Dewpoint Dewpoint Depression Visibility Wind Speed Wind Dir Waves Ship Positions

Epic Capri

Last reported at 2016-Jul-21 00:32 UTC. Time now 2016-Jul-26 12:09 UTC.
Position N 39°44' W 009°37'.

Length 99 m; draft 5.4 m.

Type: Ship (hazmat cat B). MMSI: 256325000.

Date/timePositionNaut miles runAvg speedWind from/ knotsBaromVisibWave heightAir tempDewpointWater temp
2016-Jul-21 00:32N 39°44' W 009°37'28 9.3
2016-Jul-20 21:34N 39°19' W 009°53'9 9.1
2016-Jul-20 20:33N 39°10' W 009°57'9 8.7
2016-Jul-20 19:32N 39°01' W 009°57'9 8.5
2016-Jul-20 18:32N 38°53' W 009°57'9 9.0
2016-Jul-20 17:32N 38°44' W 009°57'9 8.9
2016-Jul-20 16:33N 38°35' W 009°55'9 9.2
2016-Jul-20 15:33N 38°26' W 009°53'9 8.8
2016-Jul-20 14:33N 38°18' W 009°47'10 9.5
2016-Jul-20 13:33N 38°14' W 009°36'9 9.1
2016-Jul-20 12:33N 38°10' W 009°26'9 9.0
2016-Jul-20 11:32N 38°06' W 009°16'9 9.4
2016-Jul-20 10:33N 38°02' W 009°05'1010.2
2016-Jul-20 09:34N 37°56' W 008°55'2 1.4
2016-Jul-20 08:28N 37°57' W 008°53'0 0.0
2016-Jul-20 07:31N 37°57' W 008°53'0 0.0
2016-Jul-20 06:28N 37°57' W 008°53'0 0.0
2016-Jul-20 05:31N 37°57' W 008°53'0 0.0
2016-Jul-20 04:31N 37°57' W 008°53'0 0.0
2016-Jul-20 03:31N 37°57' W 008°53'0 0.0
2016-Jul-20 02:31N 37°57' W 008°53'0 0.0
2016-Jul-20 01:31N 37°57' W 008°53'0 0.0
2016-Jul-20 00:31N 37°57' W 008°53'0 0.0
2016-Jul-19 23:31N 37°57' W 008°53'0 0.0
2016-Jul-19 22:31N 37°57' W 008°53'0 0.0
2016-Jul-19 21:31N 37°57' W 008°53'0 0.0
2016-Jul-19 20:31N 37°57' W 008°53'0 0.0
2016-Jul-19 19:31N 37°57' W 008°53'0 0.0
2016-Jul-19 18:31N 37°57' W 008°53'0 0.0
2016-Jul-19 17:32N 37°57' W 008°53'3 2.9
2016-Jul-19 16:33N 37°54' W 008°52'0 0.0
2016-Jul-19 15:33N 37°54' W 008°52'0 0.0
2016-Jul-19 14:33N 37°54' W 008°52'0 0.0
2016-Jul-19 13:33N 37°54' W 008°52'0 0.0
2016-Jul-19 12:33N 37°54' W 008°52'4 4.2
2016-Jul-19 11:33N 37°54' W 008°57'1110.6
2016-Jul-19 10:33N 37°53' W 009°11'1111.1
2016-Jul-19 09:33N 37°53' W 009°25'1111.3
2016-Jul-19 08:32N 37°53' W 009°39'2210.8
2016-Jul-19 06:30N 37°53' W 010°07'4310.6
2016-Jul-19 02:28N 37°53' W 011°01'1010.9
2016-Jul-19 01:33N 37°53' W 011°14'1111.0
2016-Jul-19 00:33N 37°54' W 011°28'1111.0
2016-Jul-18 23:33N 37°53' W 011°42'1610.7
2016-Jul-18 22:03N 37°53' W 012°02'510.6
2016-Jul-18 21:34N 37°53' W 012°09'4410.8
2016-Jul-18 17:30N 37°53' W 013°04'4711.1
2016-Jul-18 13:19N 37°53' W 014°03'911.0
2016-Jul-18 12:32N 37°53' W 014°14'14310.8
2016-Jul-17 23:13N 37°53' W 017°15'2810.5
2016-Jul-17 20:32N 37°53' W 017°51'26210.4
2016-Jul-16 19:28N 37°53' W 023°23'3210.9
2016-Jul-16 16:34N 37°52' W 024°03'1111.0
2016-Jul-16 15:34N 37°49' W 024°16'1111.4
2016-Jul-16 14:33N 37°46' W 024°30'1111.2
2016-Jul-16 13:33N 37°44' W 024°44'1111.5
2016-Jul-16 12:33N 37°41' W 024°58'1111.2
2016-Jul-16 11:33N 37°40' W 025°12'1111.0
2016-Jul-16 10:34N 37°40' W 025°26'1010.1
2016-Jul-16 09:33N 37°43' W 025°38'2 2.0
2016-Jul-16 08:32N 37°44' W 025°40'0 0.0
2016-Jul-16 07:32N 37°44' W 025°40'0 0.0
2016-Jul-16 06:32N 37°44' W 025°40'0 0.0
2016-Jul-16 04:32N 37°44' W 025°40'0 0.0
2016-Jul-16 03:32N 37°44' W 025°40'0 0.0
2016-Jul-16 02:32N 37°44' W 025°40'0 0.0
2016-Jul-16 01:32N 37°44' W 025°40'0 0.0
2016-Jul-16 00:32N 37°44' W 025°40'0 0.0
2016-Jul-15 23:32N 37°44' W 025°40'0 0.0
2016-Jul-15 22:32N 37°44' W 025°40'0 0.0
2016-Jul-15 21:32N 37°44' W 025°40'0 0.0
2016-Jul-15 20:32N 37°44' W 025°40'0 0.0
2016-Jul-15 19:32N 37°44' W 025°40'0 0.0
2016-Jul-15 18:32N 37°44' W 025°40'0 0.0
2016-Jul-15 17:32N 37°44' W 025°40'0 0.0
2016-Jul-15 16:32N 37°44' W 025°40'1 1.1
2016-Jul-15 15:34N 37°44' W 025°39'7 6.6
2016-Jul-15 14:34N 37°44' W 025°47'1010.3
2016-Jul-15 13:33N 37°51' W 025°56'1110.7
2016-Jul-15 12:33N 37°59' W 026°06'1110.5
2016-Jul-15 11:33N 38°06' W 026°15'1010.2
2016-Jul-15 10:33N 38°14' W 026°24'1110.6
2016-Jul-15 09:34N 38°21' W 026°34'1110.6
2016-Jul-15 08:33N 38°29' W 026°43'1010.4
2016-Jul-15 07:34N 38°36' W 026°52'1010.0
2016-Jul-15 06:34N 38°43' W 027°01'1 0.1
2016-Jul-14 17:33N 38°43' W 027°03'1 0.7
2016-Jul-14 16:33N 38°43' W 027°02'0 0.0
2016-Jul-14 15:30N 38°43' W 027°02'0 0.1
2016-Jul-14 14:33N 38°43' W 027°02'0 0.0
2016-Jul-14 13:33N 38°43' W 027°02'0 0.0
2016-Jul-14 12:33N 38°43' W 027°02'0 0.0
2016-Jul-14 11:33N 38°43' W 027°02'0 0.0
2016-Jul-14 10:33N 38°43' W 027°02'0 0.1
2016-Jul-14 09:33N 38°43' W 027°02'0 0.0
2016-Jul-14 08:33N 38°43' W 027°02'1 1.3
2016-Jul-14 07:33N 38°42' W 027°01'7 7.1
2016-Jul-14 06:33N 38°36' W 027°02'1010.5
2016-Jul-14 05:33N 38°33' W 027°15'1111.0
2016-Jul-14 04:33N 38°30' W 027°29'1110.8
2016-Jul-14 03:33N 38°29' W 027°43'1010.0
2016-Jul-14 02:33N 38°31' W 027°55'1010.5
2016-Jul-14 01:33N 38°33' W 028°08'1010.4
2016-Jul-14 00:33N 38°35' W 028°21'1010.0
2016-Jul-13 23:34N 38°33' W 028°34'3 2.8
2016-Jul-13 22:27N 38°32' W 028°37'0 0.0
2016-Jul-13 21:30N 38°32' W 028°37'0 0.0
2016-Jul-13 20:33N 38°32' W 028°37'0 0.0
2016-Jul-13 19:34N 38°32' W 028°37'0 0.0
2016-Jul-13 18:33N 38°32' W 028°37'0 0.0
2016-Jul-13 17:31N 38°32' W 028°37'0 0.0
2016-Jul-13 16:34N 38°32' W 028°37'3 2.7
2016-Jul-13 15:33N 38°30' W 028°35'4 3.7
2016-Jul-13 14:33N 38°26' W 028°36'1 0.6
2016-Jul-13 13:33N 38°26' W 028°37'0 0.4
2016-Jul-13 12:33N 38°27' W 028°37'0 0.2
2016-Jul-13 11:33N 38°27' W 028°37'0 0.2
2016-Jul-13 10:34N 38°27' W 028°37'0 0.1
2016-Jul-13 09:33N 38°27' W 028°37'0 0.2
2016-Jul-13 08:33N 38°27' W 028°37'0 0.2
2016-Jul-13 07:33N 38°27' W 028°38'7 6.7
2016-Jul-13 06:33N 38°33' W 028°34'9 8.5
2016-Jul-13 05:33N 38°35' W 028°24'1110.7
2016-Jul-13 04:33N 38°33' W 028°10'1110.8
2016-Jul-13 03:33N 38°31' W 027°57'1111.1
2016-Jul-13 02:33N 38°28' W 027°43'1110.7
2016-Jul-13 01:33N 38°26' W 027°30'1010.4
2016-Jul-13 00:33N 38°24' W 027°17'1110.6
2016-Jul-12 23:33N 38°23' W 027°03'1110.7
2016-Jul-12 22:33N 38°20' W 026°50'1010.2
2016-Jul-12 21:33N 38°18' W 026°37'1010.0
2016-Jul-12 20:33N 38°16' W 026°25'10 9.9
2016-Jul-12 19:34N 38°14' W 026°13'1010.1
2016-Jul-12 18:34N 38°12' W 026°00'1010.1
2016-Jul-12 17:33N 38°10' W 025°47'10 9.9
2016-Jul-12 16:33N 38°08' W 025°35'1010.1
2016-Jul-12 15:33N 38°06' W 025°23'10 9.9
2016-Jul-12 14:33N 38°04' W 025°10'1110.5
2016-Jul-12 13:33N 38°02' W 024°57'1110.7
2016-Jul-12 12:33N 37°60' W 024°44'1010.3
2016-Jul-12 11:33N 37°58' W 024°31'1010.4
2016-Jul-12 10:33N 37°56' W 024°18'1010.0
2016-Jul-12 09:33N 37°54' W 024°06'1010.2
2016-Jul-12 08:33N 37°53' W 023°53'1010.3
2016-Jul-12 07:33N 37°53' W 023°40'1010.0
2016-Jul-12 06:33N 37°53' W 023°27'1210.3
2016-Jul-12 05:20N 37°53' W 023°11'5010.4
2016-Jul-12 00:33N 37°53' W 022°08'  
Track history (hours):
 
Tides and Currents Weather Stations Pressure Air Temp Water Temp Dewpoint Dewpoint Depression Visibility Wind Speed Wind Dir Waves Ship Positions

Epic Capri

Last reported at 2016-Jul-21 00:32 UTC. Time now 2016-Jul-26 12:09 UTC.
Position N 39°44' W 009°37'.

Length 99 m; draft 5.4 m.

Type: Ship (hazmat cat B). MMSI: 256325000.

Date/timePositionNaut miles runAvg speedWind from/ knotsBaromVisibWave heightAir tempDewpointWater temp
2016-Jul-21 00:32N 39°44' W 009°37'28 9.3
2016-Jul-20 21:34N 39°19' W 009°53'9 9.1
2016-Jul-20 20:33N 39°10' W 009°57'9 8.7
2016-Jul-20 19:32N 39°01' W 009°57'9 8.5
2016-Jul-20 18:32N 38°53' W 009°57'9 9.0
2016-Jul-20 17:32N 38°44' W 009°57'9 8.9
2016-Jul-20 16:33N 38°35' W 009°55'9 9.2
2016-Jul-20 15:33N 38°26' W 009°53'9 8.8
2016-Jul-20 14:33N 38°18' W 009°47'10 9.5
2016-Jul-20 13:33N 38°14' W 009°36'9 9.1
2016-Jul-20 12:33N 38°10' W 009°26'9 9.0
2016-Jul-20 11:32N 38°06' W 009°16'9 9.4
2016-Jul-20 10:33N 38°02' W 009°05'1010.2
2016-Jul-20 09:34N 37°56' W 008°55'2 1.4
2016-Jul-20 08:28N 37°57' W 008°53'0 0.0
2016-Jul-20 07:31N 37°57' W 008°53'0 0.0
2016-Jul-20 06:28N 37°57' W 008°53'0 0.0
2016-Jul-20 05:31N 37°57' W 008°53'0 0.0
2016-Jul-20 04:31N 37°57' W 008°53'0 0.0
2016-Jul-20 03:31N 37°57' W 008°53'0 0.0
2016-Jul-20 02:31N 37°57' W 008°53'0 0.0
2016-Jul-20 01:31N 37°57' W 008°53'0 0.0
2016-Jul-20 00:31N 37°57' W 008°53'0 0.0
2016-Jul-19 23:31N 37°57' W 008°53'0 0.0
2016-Jul-19 22:31N 37°57' W 008°53'0 0.0
2016-Jul-19 21:31N 37°57' W 008°53'0 0.0
2016-Jul-19 20:31N 37°57' W 008°53'0 0.0
2016-Jul-19 19:31N 37°57' W 008°53'0 0.0
2016-Jul-19 18:31N 37°57' W 008°53'0 0.0
2016-Jul-19 17:32N 37°57' W 008°53'3 2.9
2016-Jul-19 16:33N 37°54' W 008°52'0 0.0
2016-Jul-19 15:33N 37°54' W 008°52'0 0.0
2016-Jul-19 14:33N 37°54' W 008°52'0 0.0
2016-Jul-19 13:33N 37°54' W 008°52'0 0.0
2016-Jul-19 12:33N 37°54' W 008°52'4 4.2
2016-Jul-19 11:33N 37°54' W 008°57'1110.6
2016-Jul-19 10:33N 37°53' W 009°11'1111.1
2016-Jul-19 09:33N 37°53' W 009°25'1111.3
2016-Jul-19 08:32N 37°53' W 009°39'2210.8
2016-Jul-19 06:30N 37°53' W 010°07'4310.6
2016-Jul-19 02:28N 37°53' W 011°01'1010.9
2016-Jul-19 01:33N 37°53' W 011°14'1111.0
2016-Jul-19 00:33N 37°54' W 011°28'1111.0
2016-Jul-18 23:33N 37°53' W 011°42'1610.7
2016-Jul-18 22:03N 37°53' W 012°02'510.6
2016-Jul-18 21:34N 37°53' W 012°09'4410.8
2016-Jul-18 17:30N 37°53' W 013°04'4711.1
2016-Jul-18 13:19N 37°53' W 014°03'911.0
2016-Jul-18 12:32N 37°53' W 014°14'14310.8
2016-Jul-17 23:13N 37°53' W 017°15'2810.5
2016-Jul-17 20:32N 37°53' W 017°51'26210.4
2016-Jul-16 19:28N 37°53' W 023°23'3210.9
2016-Jul-16 16:34N 37°52' W 024°03'1111.0
2016-Jul-16 15:34N 37°49' W 024°16'1111.4
2016-Jul-16 14:33N 37°46' W 024°30'1111.2
2016-Jul-16 13:33N 37°44' W 024°44'1111.5
2016-Jul-16 12:33N 37°41' W 024°58'1111.2
2016-Jul-16 11:33N 37°40' W 025°12'1111.0
2016-Jul-16 10:34N 37°40' W 025°26'1010.1
2016-Jul-16 09:33N 37°43' W 025°38'2 2.0
2016-Jul-16 08:32N 37°44' W 025°40'0 0.0
2016-Jul-16 07:32N 37°44' W 025°40'0 0.0
2016-Jul-16 06:32N 37°44' W 025°40'0 0.0
2016-Jul-16 04:32N 37°44' W 025°40'0 0.0
2016-Jul-16 03:32N 37°44' W 025°40'0 0.0
2016-Jul-16 02:32N 37°44' W 025°40'0 0.0
2016-Jul-16 01:32N 37°44' W 025°40'0 0.0
2016-Jul-16 00:32N 37°44' W 025°40'0 0.0
2016-Jul-15 23:32N 37°44' W 025°40'0 0.0
2016-Jul-15 22:32N 37°44' W 025°40'0 0.0
2016-Jul-15 21:32N 37°44' W 025°40'0 0.0
2016-Jul-15 20:32N 37°44' W 025°40'0 0.0
2016-Jul-15 19:32N 37°44' W 025°40'0 0.0
2016-Jul-15 18:32N 37°44' W 025°40'0 0.0
2016-Jul-15 17:32N 37°44' W 025°40'0 0.0
2016-Jul-15 16:32N 37°44' W 025°40'1 1.1
2016-Jul-15 15:34N 37°44' W 025°39'7 6.6
2016-Jul-15 14:34N 37°44' W 025°47'1010.3
2016-Jul-15 13:33N 37°51' W 025°56'1110.7
2016-Jul-15 12:33N 37°59' W 026°06'1110.5
2016-Jul-15 11:33N 38°06' W 026°15'1010.2
2016-Jul-15 10:33N 38°14' W 026°24'1110.6
2016-Jul-15 09:34N 38°21' W 026°34'1110.6
2016-Jul-15 08:33N 38°29' W 026°43'1010.4
2016-Jul-15 07:34N 38°36' W 026°52'1010.0
2016-Jul-15 06:34N 38°43' W 027°01'1 0.1
2016-Jul-14 17:33N 38°43' W 027°03'1 0.7
2016-Jul-14 16:33N 38°43' W 027°02'0 0.0
2016-Jul-14 15:30N 38°43' W 027°02'0 0.1
2016-Jul-14 14:33N 38°43' W 027°02'0 0.0
2016-Jul-14 13:33N 38°43' W 027°02'0 0.0
2016-Jul-14 12:33N 38°43' W 027°02'0 0.0
2016-Jul-14 11:33N 38°43' W 027°02'0 0.0
2016-Jul-14 10:33N 38°43' W 027°02'0 0.1
2016-Jul-14 09:33N 38°43' W 027°02'0 0.0
2016-Jul-14 08:33N 38°43' W 027°02'1 1.3
2016-Jul-14 07:33N 38°42' W 027°01'7 7.1
2016-Jul-14 06:33N 38°36' W 027°02'1010.5
2016-Jul-14 05:33N 38°33' W 027°15'1111.0
2016-Jul-14 04:33N 38°30' W 027°29'1110.8
2016-Jul-14 03:33N 38°29' W 027°43'1010.0
2016-Jul-14 02:33N 38°31' W 027°55'1010.5
2016-Jul-14 01:33N 38°33' W 028°08'1010.4
2016-Jul-14 00:33N 38°35' W 028°21'1010.0
2016-Jul-13 23:34N 38°33' W 028°34'3 2.8
2016-Jul-13 22:27N 38°32' W 028°37'0 0.0
2016-Jul-13 21:30N 38°32' W 028°37'0 0.0
2016-Jul-13 20:33N 38°32' W 028°37'0 0.0
2016-Jul-13 19:34N 38°32' W 028°37'0 0.0
2016-Jul-13 18:33N 38°32' W 028°37'0 0.0
2016-Jul-13 17:31N 38°32' W 028°37'0 0.0
2016-Jul-13 16:34N 38°32' W 028°37'3 2.7
2016-Jul-13 15:33N 38°30' W 028°35'4 3.7
2016-Jul-13 14:33N 38°26' W 028°36'1 0.6
2016-Jul-13 13:33N 38°26' W 028°37'0 0.4
2016-Jul-13 12:33N 38°27' W 028°37'0 0.2
2016-Jul-13 11:33N 38°27' W 028°37'0 0.2
2016-Jul-13 10:34N 38°27' W 028°37'0 0.1
2016-Jul-13 09:33N 38°27' W 028°37'0 0.2
2016-Jul-13 08:33N 38°27' W 028°37'0 0.2
2016-Jul-13 07:33N 38°27' W 028°38'7 6.7
2016-Jul-13 06:33N 38°33' W 028°34'9 8.5
2016-Jul-13 05:33N 38°35' W 028°24'1110.7
2016-Jul-13 04:33N 38°33' W 028°10'1110.8
2016-Jul-13 03:33N 38°31' W 027°57'1111.1
2016-Jul-13 02:33N 38°28' W 027°43'1110.7
2016-Jul-13 01:33N 38°26' W 027°30'1010.4
2016-Jul-13 00:33N 38°24' W 027°17'1110.6
2016-Jul-12 23:33N 38°23' W 027°03'1110.7
2016-Jul-12 22:33N 38°20' W 026°50'1010.2
2016-Jul-12 21:33N 38°18' W 026°37'1010.0
2016-Jul-12 20:33N 38°16' W 026°25'10 9.9
2016-Jul-12 19:34N 38°14' W 026°13'1010.1
2016-Jul-12 18:34N 38°12' W 026°00'1010.1
2016-Jul-12 17:33N 38°10' W 025°47'10 9.9
2016-Jul-12 16:33N 38°08' W 025°35'1010.1
2016-Jul-12 15:33N 38°06' W 025°23'10 9.9
2016-Jul-12 14:33N 38°04' W 025°10'1110.5
2016-Jul-12 13:33N 38°02' W 024°57'1110.7
2016-Jul-12 12:33N 37°60' W 024°44'1010.3
2016-Jul-12 11:33N 37°58' W 024°31'1010.4
2016-Jul-12 10:33N 37°56' W 024°18'1010.0
2016-Jul-12 09:33N 37°54' W 024°06'1010.2
2016-Jul-12 08:33N 37°53' W 023°53'1010.3
2016-Jul-12 07:33N 37°53' W 023°40'1010.0
2016-Jul-12 06:33N 37°53' W 023°27'1210.3
2016-Jul-12 05:20N 37°53' W 023°11'5010.4
2016-Jul-12 00:33N 37°53' W 022°08'  

Dump ship's entire track history